createdAt,value
2019-04-27T00:04:19.393Z,72.19
2019-04-27T00:08:38.719Z,72.53
2019-04-27T00:12:42.948Z,70.97
2019-04-27T00:17:21.140Z,71.18
2019-04-27T00:21:32.829Z,71.66
2019-04-27T00:25:40.978Z,71.14
2019-04-27T00:29:48.749Z,70.36
2019-04-27T00:33:57.355Z,70.95
2019-04-27T00:38:30.236Z,71.24
2019-04-27T00:42:38.184Z,70.91
2019-04-27T00:46:46.002Z,71.03
2019-04-27T00:50:53.814Z,71.17
2019-04-27T00:55:03.105Z,71.45
2019-04-27T00:59:29.030Z,72.33
2019-04-27T01:03:40.577Z,73.62
2019-04-27T01:07:48.934Z,73.62
2019-04-27T01:11:57.237Z,73.30
2019-04-27T01:16:05.322Z,74.85
2019-04-27T01:20:14.006Z,74.87
2019-04-27T01:24:21.877Z,74.37
2019-04-27T01:28:34.611Z,73.01
2019-04-27T01:32:42.428Z,72.36
2019-04-27T01:36:50.751Z,71.47
2019-04-27T01:41:00.603Z,70.87
2019-04-27T01:45:08.907Z,70.54
2019-04-27T01:49:19.267Z,70.98
2019-04-27T01:53:28.575Z,70.88
2019-04-27T01:57:38.636Z,71.09
2019-04-27T02:02:04.658Z,70.62
2019-04-27T02:06:12.747Z,70.73
2019-04-27T02:10:20.988Z,72.67
2019-04-27T02:14:29.030Z,71.23
2019-04-27T02:18:38.256Z,70.68
2019-04-27T02:22:48.542Z,69.90
2019-04-27T02:26:56.427Z,69.82
2019-04-27T02:31:26.587Z,70.18
2019-04-27T02:35:34.479Z,69.96
2019-04-27T02:39:43.432Z,70.08
2019-04-27T02:44:09.556Z,69.62
2019-04-27T02:48:16.660Z,69.85
2019-04-27T02:52:35.855Z,70.09
2019-04-27T02:56:43.969Z,70.18
2019-04-27T03:00:51.634Z,70.60
2019-04-27T03:05:00.793Z,70.66
2019-04-27T03:09:10.427Z,70.89
2019-04-27T03:13:30.373Z,71.22
2019-04-27T03:17:52.998Z,71.39
2019-04-27T03:22:22.157Z,71.10
2019-04-27T03:26:50.058Z,71.84
2019-04-27T03:31:02.356Z,72.17
2019-04-27T03:35:12.970Z,72.41
2019-04-27T03:39:19.916Z,72.04
2019-04-27T03:43:30.207Z,71.94
2019-04-27T03:47:40.479Z,72.34
2019-04-27T03:52:03.029Z,73.15
2019-04-27T03:56:25.781Z,72.99
2019-04-27T04:00:34.019Z,72.99
2019-04-27T04:04:41.933Z,73.10
2019-04-27T04:08:52.962Z,72.88
2019-04-27T04:13:10.508Z,72.87
2019-04-27T04:17:20.374Z,72.41
2019-04-27T04:21:29.829Z,71.75
2019-04-27T04:25:40.948Z,70.83
2019-04-27T04:29:49.280Z,69.65
2019-04-27T04:33:59.793Z,70.16
2019-04-27T04:38:10.440Z,69.68
2019-04-27T04:42:36.280Z,69.07
2019-04-27T04:46:53.204Z,67.30
2019-04-27T04:51:00.671Z,68.69
2019-04-27T04:55:10.156Z,67.64
2019-04-27T04:59:20.182Z,68.01
2019-04-27T05:03:28.669Z,67.34
2019-04-27T05:07:38.622Z,66.44
2019-04-27T05:11:46.494Z,66.87
2019-04-27T05:15:54.726Z,66.63
2019-04-27T05:20:06.137Z,66.69
2019-04-27T05:24:14.118Z,66.26
2019-04-27T05:28:21.947Z,65.84
2019-04-27T05:32:30.469Z,64.83
2019-04-27T05:36:43.551Z,64.17
2019-04-27T05:40:49.718Z,63.74
2019-04-27T05:45:34.343Z,64.32
2019-04-27T05:49:44.689Z,62.46
2019-04-27T05:53:52.924Z,63.53
2019-04-27T05:58:00.730Z,64.85
2019-04-27T06:02:09.361Z,62.73
2019-04-27T06:06:19.729Z,61.37
2019-04-27T06:10:29.692Z,62.91
2019-04-27T06:14:39.250Z,60.98
2019-04-27T06:18:47.076Z,60.11
2019-04-27T06:22:54.771Z,58.99
2019-04-27T06:27:02.967Z,58.66
2019-04-27T06:31:11.119Z,59.10
2019-04-27T06:35:19.012Z,59.99
2019-04-27T06:39:26.810Z,58.36
2019-04-27T06:43:34.739Z,57.29
2019-04-27T06:47:42.540Z,57.21
2019-04-27T06:51:50.365Z,57.17
2019-04-27T06:55:58.661Z,57.05
2019-04-27T07:00:09.077Z,57.59
2019-04-27T07:04:19.415Z,54.33
2019-04-27T07:08:28.662Z,55.84
2019-04-27T07:12:38.726Z,56.55
2019-04-27T07:16:46.842Z,55.59
2019-04-27T07:20:55.257Z,53.65
2019-04-27T07:25:03.078Z,54.65
2019-04-27T07:29:11.196Z,54.65
2019-04-27T07:33:19.248Z,56.00
2019-04-27T07:37:26.954Z,54.32
2019-04-27T07:41:34.730Z,53.55
2019-04-27T07:45:43.035Z,55.61
2019-04-27T07:49:50.843Z,54.79
2019-04-27T07:53:58.979Z,54.67
2019-04-27T07:58:08.782Z,55.75
2019-04-27T08:02:16.840Z,53.43
2019-04-27T08:06:24.745Z,53.50
2019-04-27T08:10:32.598Z,52.47
2019-04-27T08:14:40.482Z,52.47
2019-04-27T08:18:49.641Z,52.63
2019-04-27T08:22:59.842Z,50.39
2019-04-27T08:27:36.994Z,55.08
2019-04-27T08:31:49.996Z,55.08
2019-04-27T08:35:59.055Z,50.99
2019-04-27T08:40:09.316Z,54.07
2019-04-27T08:44:17.462Z,54.07
2019-04-27T08:48:34.774Z,53.32
2019-04-27T08:52:34.777Z,51.25
2019-04-27T08:56:42.707Z,54.06
2019-04-27T09:00:50.315Z,53.65
2019-04-27T09:04:59.654Z,55.57
2019-04-27T09:09:12.843Z,55.99
2019-04-27T09:13:29.949Z,57.17
2019-04-27T09:17:46.164Z,51.94
2019-04-27T09:22:15.271Z,49.20
2019-04-27T09:26:14.341Z,50.07
2019-04-27T09:30:22.244Z,49.83
2019-04-27T09:34:30.470Z,48.20
2019-04-27T09:38:38.684Z,47.84
2019-04-27T09:42:46.512Z,48.55
2019-04-27T09:46:56.049Z,46.08
2019-04-27T09:51:06.457Z,47.67
2019-04-27T09:55:14.114Z,49.86
2019-04-27T09:59:22.069Z,47.62
2019-04-27T10:03:29.853Z,48.23
2019-04-27T10:07:37.471Z,47.72
2019-04-27T10:11:45.281Z,44.85
2019-04-27T10:15:53.181Z,44.23
2019-04-27T10:20:01.007Z,44.91
2019-04-27T10:24:08.910Z,43.38
2019-04-27T10:28:16.624Z,42.91
2019-04-27T10:32:26.061Z,42.73
2019-04-27T10:36:40.328Z,42.13
2019-04-27T10:40:48.132Z,45.31
2019-04-27T10:44:56.252Z,42.68
2019-04-27T10:49:05.884Z,40.63
2019-04-27T10:53:13.727Z,39.85
2019-04-27T10:57:22.048Z,41.13
2019-04-27T11:01:30.831Z,42.55
2019-04-27T11:06:01.071Z,42.03
2019-04-27T11:10:10.478Z,42.18
2019-04-27T11:14:18.043Z,42.10
2019-04-27T11:18:25.923Z,42.42
2019-04-27T11:22:34.106Z,42.15
2019-04-27T11:26:41.880Z,43.53
2019-04-27T11:30:49.793Z,41.62
2019-04-27T11:35:16.569Z,38.66
2019-04-27T11:39:26.022Z,42.51
2019-04-27T11:43:33.925Z,43.20
2019-04-27T11:47:41.606Z,43.51
2019-04-27T11:51:49.225Z,44.45
2019-04-27T11:55:57.136Z,46.45
2019-04-27T12:00:07.894Z,47.43
2019-04-27T12:04:16.137Z,47.43
2019-04-27T12:08:26.410Z,46.23
2019-04-27T12:12:36.264Z,46.05
2019-04-27T12:16:43.973Z,44.22
2019-04-27T12:20:52.177Z,42.79
2019-04-27T12:24:59.892Z,43.22
2019-04-27T12:29:11.128Z,45.87
2019-04-27T12:33:19.707Z,43.92
2019-04-27T12:37:27.394Z,42.28
2019-04-27T12:41:37.305Z,43.61
2019-04-27T12:45:46.020Z,43.49
2019-04-27T12:49:53.851Z,44.50
2019-04-27T12:54:33.024Z,44.50
2019-04-27T12:58:48.443Z,44.74
2019-04-27T13:02:57.715Z,42.05
2019-04-27T13:07:05.992Z,45.76
2019-04-27T13:11:13.826Z,45.76
2019-04-27T13:15:21.946Z,43.99
2019-04-27T13:19:31.182Z,45.03
2019-04-27T13:23:38.998Z,44.27
2019-04-27T13:27:47.916Z,44.11
2019-04-27T13:31:57.743Z,46.24
2019-04-27T13:36:07.576Z,47.09
2019-04-27T13:40:17.197Z,41.14
2019-04-27T13:44:26.151Z,43.61
2019-04-27T13:48:52.866Z,43.61
2019-04-27T13:53:01.027Z,43.70
2019-04-27T13:57:08.929Z,44.84
2019-04-27T14:01:17.285Z,43.75
2019-04-27T14:05:24.764Z,45.33
2019-04-27T14:09:32.755Z,45.33
2019-04-27T14:13:40.888Z,44.02
2019-04-27T14:17:50.026Z,45.34
2019-04-27T14:21:59.067Z,47.20
2019-04-27T14:26:08.787Z,46.28
2019-04-27T14:30:18.492Z,44.00
2019-04-27T14:34:26.166Z,44.85
2019-04-27T14:38:34.127Z,46.66
2019-04-27T14:42:42.207Z,47.32
2019-04-27T14:46:51.197Z,45.29
2019-04-27T14:50:59.210Z,47.05
2019-04-27T14:55:08.586Z,48.49
2019-04-27T14:59:16.398Z,48.75
2019-04-27T15:03:24.230Z,50.79
2019-04-27T15:07:32.043Z,50.23
2019-04-27T15:11:40.040Z,50.90
2019-04-27T15:15:47.579Z,51.74
2019-04-27T15:20:00.900Z,52.57
2019-04-27T15:24:09.991Z,52.01
2019-04-27T15:28:22.746Z,50.71
2019-04-27T15:32:42.368Z,51.37
2019-04-27T15:37:00.100Z,52.50
2019-04-27T15:41:15.700Z,52.45
2019-04-27T15:45:24.479Z,52.67
2019-04-27T15:49:32.724Z,54.54
2019-04-27T15:53:41.811Z,55.52
2019-04-27T15:57:50.533Z,56.21
2019-04-27T16:01:58.616Z,57.33
2019-04-27T16:06:08.214Z,59.19
2019-04-27T16:10:17.708Z,60.81
2019-04-27T16:14:26.138Z,59.90
2019-04-27T16:18:34.056Z,61.43
2019-04-27T16:22:42.299Z,62.78
2019-04-27T16:26:52.300Z,63.08
2019-04-27T16:30:59.739Z,62.70
2019-04-27T16:35:13.667Z,63.58
2019-04-27T16:39:20.379Z,64.97
2019-04-27T16:43:32.524Z,64.98
2019-04-27T16:47:38.394Z,66.66
2019-04-27T16:51:46.178Z,66.80
2019-04-27T16:56:11.371Z,67.21
2019-04-27T17:00:18.505Z,68.90
2019-04-27T17:04:26.130Z,70.27
2019-04-27T17:08:34.014Z,70.25
2019-04-27T17:12:45.917Z,70.18
2019-04-27T17:17:03.653Z,71.61
2019-04-27T17:21:19.038Z,72.38
2019-04-27T17:25:23.423Z,72.16
2019-04-27T17:29:34.218Z,72.77
2019-04-27T17:33:48.719Z,72.61
2019-04-27T17:37:59.373Z,74.20
2019-04-27T17:42:08.445Z,74.24
2019-04-27T17:46:16.750Z,73.98
2019-04-27T17:50:26.106Z,74.50
2019-04-27T17:54:34.734Z,74.61
2019-04-27T17:58:42.636Z,75.34
2019-04-27T18:02:50.440Z,75.10
2019-04-27T18:07:02.085Z,75.43
2019-04-27T18:11:08.769Z,75.16
2019-04-27T18:15:16.850Z,75.32
2019-04-27T18:19:36.309Z,75.69
2019-04-27T18:23:52.276Z,75.46
2019-04-27T18:28:14.834Z,76.18
2019-04-27T18:32:23.478Z,76.60
2019-04-27T18:36:31.443Z,76.31
2019-04-27T18:40:40.096Z,76.11
2019-04-27T18:44:48.572Z,75.97
2019-04-27T18:49:15.265Z,76.29
2019-04-27T18:53:26.330Z,76.54
2019-04-27T18:57:34.632Z,75.41
2019-04-27T19:01:43.386Z,74.98
2019-04-27T19:05:51.409Z,75.47
2019-04-27T19:09:59.302Z,75.65
2019-04-27T19:14:08.309Z,75.76
2019-04-27T19:18:18.690Z,76.33
2019-04-27T19:22:27.967Z,76.81
2019-04-27T19:26:55.137Z,76.94
2019-04-27T19:31:08.274Z,76.62
2019-04-27T19:35:16.057Z,75.79
2019-04-27T19:39:24.573Z,75.72
2019-04-27T19:43:32.448Z,75.42
2019-04-27T19:47:40.135Z,75.18
2019-04-27T19:51:48.647Z,76.94
2019-04-27T19:56:02.390Z,77.29
2019-04-27T20:00:19.626Z,76.85
2019-04-27T20:04:32.255Z,76.82
2019-04-27T20:08:41.801Z,76.21
2019-04-27T20:12:50.957Z,76.97
2019-04-27T20:16:59.133Z,77.66
2019-04-27T20:21:06.729Z,77.00
2019-04-27T20:25:14.667Z,77.75
2019-04-27T20:29:22.566Z,76.63
2019-04-27T20:33:31.150Z,74.73
2019-04-27T20:37:41.444Z,75.83
2019-04-27T20:41:50.754Z,75.18
2019-04-27T20:46:00.758Z,74.49
2019-04-27T20:50:08.981Z,74.99
2019-04-27T20:54:17.195Z,74.65
2019-04-27T20:58:25.433Z,74.59
2019-04-27T21:03:07.922Z,75.03
2019-04-27T21:07:15.400Z,76.66
2019-04-27T21:11:22.978Z,75.27
2019-04-27T21:15:31.525Z,75.94
2019-04-27T21:19:41.356Z,76.70
2019-04-27T21:23:51.363Z,74.58
2019-04-27T21:27:58.726Z,74.27
2019-04-27T21:32:07.909Z,74.74
2019-04-27T21:36:17.506Z,75.53
2019-04-27T21:40:25.225Z,76.08
2019-04-27T21:44:34.143Z,76.23
2019-04-27T21:48:42.161Z,75.50
2019-04-27T21:53:00.607Z,75.46
2019-04-27T21:57:11.000Z,75.33
2019-04-27T22:01:31.806Z,75.84
2019-04-27T22:05:41.736Z,75.85
2019-04-27T22:09:51.563Z,74.48
2019-04-27T22:14:01.205Z,75.44
2019-04-27T22:18:08.982Z,76.95
2019-04-27T22:22:29.269Z,75.04
2019-04-27T22:26:37.611Z,73.93
2019-04-27T22:30:45.413Z,74.75
2019-04-27T22:34:54.044Z,76.42
2019-04-27T22:39:11.905Z,77.73
2019-04-27T22:43:38.480Z,75.96
2019-04-27T22:47:46.140Z,73.47
2019-04-27T22:51:54.072Z,75.07
2019-04-27T22:56:16.962Z,74.89
2019-04-27T23:00:56.047Z,75.54
2019-04-27T23:05:05.730Z,74.91
2019-04-27T23:09:14.342Z,75.53
2019-04-27T23:13:22.155Z,74.96
2019-04-27T23:17:58.885Z,75.56
2019-04-27T23:22:07.028Z,76.27
2019-04-27T23:26:14.921Z,72.58
2019-04-27T23:30:28.429Z,73.26
2019-04-27T23:34:36.150Z,75.42
2019-04-27T23:38:43.725Z,74.36
2019-04-27T23:42:51.712Z,73.11
2019-04-27T23:47:00.468Z,74.73
2019-04-27T23:51:20.484Z,75.52
2019-04-27T23:55:31.826Z,74.72
2019-04-27T23:59:41.649Z,72.51
